Time;durP1;ratioP1;P1;durP2;ratioP2;P2;SDS_P1;SDS_P2;PMS_P1;PMS_P2;Temp;Humidity;BMP_temperature;BMP_pressure;BME280_temperature;BME280_humidity;BME280_pressure;Samples;Min_cycle;Max_cycle;Signal;HPM_P1;HPM_P2
2021/06/23 06:38:47;;;;;;;4.25;2.75;;;22.50;90.30;;;;;;5011679;23;20150;-84
2021/06/23 06:41:12;;;;;;;4.45;2.70;;;22.60;90.40;;;;;;4918284;29;20533;-84
2021/06/23 06:43:38;;;;;;;5.43;2.58;;;22.60;90.30;;;;;;4902840;29;20405;-84
2021/06/23 06:46:04;;;;;;;3.35;2.17;;;22.60;90.30;;;;;;4918531;29;20156;-85
2021/06/23 06:48:29;;;;;;;2.97;2.08;;;22.60;90.30;;;;;;4917964;29;20032;-84
2021/06/23 06:50:55;;;;;;;2.58;1.95;;;22.60;90.20;;;;;;4902436;29;20047;-84
2021/06/23 06:53:21;;;;;;;3.25;1.95;;;22.60;90.20;;;;;;4919260;29;20032;-84
2021/06/23 06:55:47;;;;;;;3.13;2.03;;;22.60;90.10;;;;;;4918082;29;20040;-84
2021/06/23 06:58:13;;;;;;;2.38;1.80;;;22.60;90.10;;;;;;4918193;29;20137;-84
2021/06/23 07:00:39;;;;;;;3.13;2.17;;;22.60;90.10;;;;;;4902580;29;20126;-84
2021/06/23 07:03:05;;;;;;;2.40;1.67;;;22.60;90.10;;;;;;4918607;29;20210;-84
2021/06/23 07:05:31;;;;;;;1.83;1.65;;;22.60;90.10;;;;;;4918711;29;20537;-84
2021/06/23 07:07:57;;;;;;;2.17;1.60;;;22.60;90.30;;;;;;4885828;29;20036;-84
2021/06/23 07:10:23;;;;;;;2.58;1.60;;;22.60;90.00;;;;;;4918480;29;20501;-85
2021/06/23 07:12:48;;;;;;;2.30;1.65;;;22.60;90.00;;;;;;4902720;29;20466;-84
2021/06/23 07:15:15;;;;;;;3.85;1.60;;;22.60;90.00;;;;;;4917894;29;20036;-83
2021/06/23 07:17:41;;;;;;;4.18;1.63;;;22.60;90.00;;;;;;4919384;29;20036;-83
2021/06/23 07:20:07;;;;;;;2.13;1.48;;;22.60;90.00;;;;;;4918091;29;20040;-83
2021/06/23 07:22:33;;;;;;;2.88;1.30;;;22.60;90.00;;;;;;4917340;29;20390;-85
2021/06/23 07:24:59;;;;;;;1.85;1.25;;;22.60;90.00;;;;;;4902162;29;20474;-84
2021/06/23 07:27:26;;;;;;;1.95;1.17;;;22.60;90.00;;;;;;4883227;29;20048;-85
2021/06/23 07:29:52;;;;;;;2.40;1.45;;;22.60;90.00;;;;;;4888714;29;20036;-84
2021/06/23 07:32:25;;;;;;;1.23;1.00;;;22.70;89.90;;;;;;4866247;29;20045;-85
2021/06/23 07:37:16;;;;;;;1.60;1.27;;;22.70;89.80;;;;;;4897943;29;20056;-84
2021/06/23 07:39:43;;;;;;;3.33;1.20;;;22.70;89.60;;;;;;4898152;29;20036;-85
2021/06/23 07:42:10;;;;;;;1.42;1.00;;;22.70;89.50;;;;;;4898266;29;20119;-84
2021/06/23 07:44:40;;;;;;;1.70;1.13;;;22.70;89.40;;;;;;4882307;29;20044;-84
2021/06/23 07:47:08;;;;;;;1.98;1.02;;;22.70;89.40;;;;;;4868169;29;20040;-84
2021/06/23 07:49:37;;;;;;;1.67;1.08;;;22.70;89.30;;;;;;4899257;29;20032;-84
2021/06/23 08:08:26;;;;;;;3.93;1.27;;;22.70;89.40;;;;;;4884979;29;20569;-85
2021/06/23 08:10:58;;;;;;;2.63;1.10;;;22.70;89.50;;;;;;4898076;29;20028;-84
2021/06/23 08:13:24;;;;;;;1.90;1.20;;;22.70;89.40;;;;;;4882937;29;20115;-85
2021/06/23 08:15:50;;;;;;;2.55;1.33;;;22.70;89.40;;;;;;4898780;29;20131;-85
2021/06/23 08:18:20;;;;;;;1.75;1.00;;;22.70;89.40;;;;;;4881904;29;20120;-85
2021/06/23 08:20:48;;;;;;;1.77;0.90;;;22.70;89.40;;;;;;4897151;29;20065;-84
2021/06/23 08:23:14;;;;;;;1.70;1.10;;;22.70;89.40;;;;;;4882159;29;20037;-85
2021/06/23 08:25:39;;;;;;;1.85;1.13;;;22.70;89.40;;;;;;4897185;29;20069;-84
2021/06/23 08:28:05;;;;;;;2.17;0.93;;;22.70;89.30;;;;;;4881849;29;20032;-84
2021/06/23 08:30:31;;;;;;;1.83;0.90;;;22.70;89.30;;;;;;4897415;29;20070;-85
2021/06/23 08:32:58;;;;;;;2.17;0.85;;;22.70;89.30;;;;;;4897463;29;20076;-84
2021/06/23 08:35:24;;;;;;;1.13;0.85;;;22.70;89.20;;;;;;4898322;29;20068;-86
2021/06/23 08:37:50;;;;;;;1.42;0.88;;;22.70;89.20;;;;;;4897447;29;20498;-84
2021/06/23 08:40:16;;;;;;;1.60;0.90;;;22.70;89.10;;;;;;4897754;29;20044;-84
2021/06/23 08:42:43;;;;;;;2.50;1.33;;;22.80;89.10;;;;;;4897282;29;20039;-84
2021/06/23 08:45:10;;;;;;;1.45;0.90;;;22.70;89.00;;;;;;4897046;29;20032;-84
2021/06/23 08:47:44;;;;;;;1.17;0.90;;;22.80;89.00;;;;;;4896626;29;20141;-85
2021/06/23 08:50:12;;;;;;;1.88;1.00;;;22.80;89.00;;;;;;4897214;29;20025;-84
2021/06/23 08:52:38;;;;;;;1.48;1.00;;;22.70;88.90;;;;;;4898087;29;20040;-84
2021/06/23 08:55:05;;;;;;;1.10;0.90;;;22.70;89.00;;;;;;4897091;29;20414;-85
2021/06/23 08:57:33;;;;;;;3.90;1.00;;;22.80;89.10;;;;;;4896835;29;20064;-85
2021/06/23 09:00:00;;;;;;;2.00;1.10;;;22.80;89.10;;;;;;4896820;29;20514;-85
2021/06/23 09:02:26;;;;;;;0.90;0.80;;;22.80;89.20;;;;;;4896847;29;20036;-86
2021/06/23 09:04:56;;;;;;;1.23;0.70;;;22.80;89.30;;;;;;4866093;29;20238;-84
2021/06/23 09:07:38;;;;;;;1.67;1.05;;;22.80;89.40;;;;;;4896862;29;20170;-84
2021/06/23 09:10:21;;;;;;;1.05;0.88;;;22.80;89.60;;;;;;4896856;29;20088;-85
2021/06/23 09:13:21;;;;;;;1.33;0.90;;;22.80;89.90;;;;;;4897541;29;20040;-85
2021/06/23 09:15:55;;;;;;;1.20;0.90;;;22.90;90.10;;;;;;4847137;29;20052;-85
2021/06/23 09:18:24;;;;;;;;;;;22.90;90.30;;;;;;4897189;29;20025;-84
2021/06/23 09:21:05;;;;;;;1.98;1.00;;;22.90;90.50;;;;;;4896065;29;20381;-84
2021/06/23 09:23:44;;;;;;;1.10;0.90;;;22.90;90.70;;;;;;4896763;29;20158;-85
2021/06/23 09:26:16;;;;;;;1.60;0.70;;;22.90;90.90;;;;;;4896570;29;20589;-84
2021/06/23 09:28:42;;;;;;;1.85;1.00;;;23.00;91.00;;;;;;4897946;29;20052;-85
2021/06/23 09:31:09;;;;;;;2.38;1.13;;;23.00;91.10;;;;;;4897146;29;20033;-84
2021/06/23 09:33:35;;;;;;;2.50;1.00;;;23.00;91.10;;;;;;4899583;29;20024;-85
2021/06/23 09:36:11;;;;;;;1.52;1.13;;;23.00;91.10;;;;;;4897542;29;20498;-85
2021/06/23 09:38:51;;;;;;;1.10;0.90;;;23.10;91.00;;;;;;4897697;29;20060;-85
2021/06/23 09:41:33;;;;;;;1.83;0.98;;;23.10;90.90;;;;;;4896531;29;20044;-85
2021/06/23 09:44:05;;;;;;;1.15;0.82;;;23.10;90.90;;;;;;4896491;29;20486;-84
2021/06/23 09:46:33;;;;;;;1.63;0.90;;;23.10;90.80;;;;;;4898188;29;20048;-85
2021/06/23 09:49:13;;;;;;;1.73;1.08;;;23.10;90.80;;;;;;4897668;29;20033;-84
2021/06/23 09:52:09;;;;;;;0.88;0.65;;;23.10;90.70;;;;;;4896322;29;20041;-84
2021/06/23 09:54:51;;;;;;;2.95;1.02;;;23.10;90.60;;;;;;4893538;29;20056;-85
2021/06/23 09:57:18;;;;;;;1.02;0.60;;;23.10;90.50;;;;;;4896443;29;20505;-84
2021/06/23 09:59:49;;;;;;;1.45;0.93;;;23.10;90.50;;;;;;4880866;29;20088;-85
2021/06/23 10:02:26;;;;;;;1.00;0.82;;;23.20;90.50;;;;;;4866716;29;20029;-84
2021/06/23 10:04:55;;;;;;;1.20;0.70;;;23.20;90.40;;;;;;4895987;29;20037;-85
2021/06/23 10:07:39;;;;;;;2.03;1.35;;;23.20;90.40;;;;;;4896483;29;20024;-84
2021/06/23 10:10:06;;;;;;;1.10;0.70;;;23.20;90.40;;;;;;4896279;29;20085;-85
2021/06/23 10:12:32;;;;;;;0.95;0.80;;;23.20;90.40;;;;;;4897917;29;20048;-87
2021/06/23 10:14:58;;;;;;;0.60;0.60;;;23.20;90.30;;;;;;4896165;29;20040;-85
2021/06/23 10:17:24;;;;;;;0.68;0.68;;;23.20;90.40;;;;;;4896395;29;20028;-85
2021/06/23 10:19:50;;;;;;;0.85;0.70;;;23.20;90.30;;;;;;4880564;29;20039;-85
2021/06/23 10:22:17;;;;;;;1.30;0.57;;;23.30;90.30;;;;;;4897598;29;20049;-84
2021/06/23 10:24:44;;;;;;;1.27;0.80;;;23.30;90.30;;;;;;4880829;29;20044;-85
2021/06/23 10:27:11;;;;;;;0.60;0.60;;;23.30;90.20;;;;;;4896264;29;20509;-85
2021/06/23 10:29:39;;;;;;;1.15;0.90;;;23.30;90.20;;;;;;4895570;29;20386;-83
2021/06/23 10:32:08;;;;;;;0.73;0.60;;;23.30;90.20;;;;;;4897391;29;20475;-86
2021/06/23 10:34:34;;;;;;;0.73;0.60;;;23.30;90.20;;;;;;4895985;29;20031;-86
2021/06/23 10:37:00;;;;;;;1.33;0.80;;;23.20;90.10;;;;;;4896165;29;20028;-85
2021/06/23 10:39:32;;;;;;;1.20;0.73;;;23.30;90.20;;;;;;4880675;29;20040;-84
2021/06/23 10:42:04;;;;;;;0.90;0.60;;;23.30;90.20;;;;;;4888653;29;20057;-85
2021/06/23 10:44:43;;;;;;;0.70;0.70;;;23.30;90.20;;;;;;4890207;29;20028;-84
2021/06/23 10:47:26;;;;;;;0.63;0.50;;;23.30;90.20;;;;;;4899844;29;20084;-84
2021/06/23 10:49:53;;;;;;;0.60;0.60;;;23.30;90.20;;;;;;4899249;29;20478;-83
2021/06/23 10:52:21;;;;;;;0.70;0.60;;;23.30;90.20;;;;;;4899779;29;20047;-84
2021/06/23 10:54:48;;;;;;;1.02;0.68;;;23.30;90.10;;;;;;4898287;29;20032;-84
2021/06/23 10:57:24;;;;;;;0.50;0.50;;;23.30;90.10;;;;;;4899213;29;20036;-84
2021/06/23 10:59:51;;;;;;;0.93;0.60;;;23.30;90.10;;;;;;4899081;29;20028;-84
2021/06/23 11:02:17;;;;;;;1.63;0.90;;;23.30;90.20;;;;;;4868561;29;20039;-84
2021/06/23 11:05:10;;;;;;;0.80;0.80;;;23.40;90.20;;;;;;4883232;29;20128;-85
2021/06/23 11:07:47;;;;;;;1.38;1.10;;;23.40;90.20;;;;;;4897646;29;20040;-84
2021/06/23 11:10:16;;;;;;;1.27;0.90;;;23.40;90.20;;;;;;4899620;29;20075;-85
2021/06/23 11:12:55;;;;;;;0.98;0.90;;;23.40;90.20;;;;;;4900204;29;20535;-85
2021/06/23 11:15:29;;;;;;;1.38;1.00;;;23.40;90.20;;;;;;4898883;29;20048;-84
2021/06/23 11:17:57;;;;;;;1.47;0.83;;;23.40;90.20;;;;;;4898615;29;20063;-84
2021/06/23 11:20:23;;;;;;;1.42;1.05;;;23.40;90.20;;;;;;4883835;29;20308;-84
2021/06/23 11:22:50;;;;;;;1.38;1.00;;;23.40;90.20;;;;;;4899735;29;20423;-83
2021/06/23 11:25:26;;;;;;;1.38;1.10;;;23.40;90.20;;;;;;4898600;29;20040;-84
2021/06/23 11:28:11;;;;;;;2.25;1.50;;;23.40;90.10;;;;;;4899014;29;20056;-88
2021/06/23 11:30:42;;;;;;;3.97;1.60;;;23.40;89.90;;;;;;4899754;29;20104;-89
2021/06/23 11:33:27;;;;;;;4.72;1.88;;;23.30;89.70;;;;;;4899881;29;20029;-89
2021/06/23 11:36:00;;;;;;;2.40;1.60;;;23.30;89.50;;;;;;4899330;29;20037;-88
2021/06/23 11:38:26;;;;;;;4.00;2.33;;;23.30;89.50;;;;;;4899246;29;20063;-88
2021/06/23 11:40:54;;;;;;;2.47;1.48;;;23.20;89.20;;;;;;4899246;29;20036;-88
2021/06/23 11:43:20;;;;;;;2.38;1.73;;;23.20;89.20;;;;;;4884123;29;20475;-87
2021/06/23 11:45:48;;;;;;;1.58;1.30;;;23.10;89.20;;;;;;4899465;29;20064;-86
2021/06/23 11:48:15;;;;;;;3.10;1.10;;;23.10;89.30;;;;;;4895093;29;20033;-86
2021/06/23 11:50:43;;;;;;;2.17;1.38;;;23.10;89.40;;;;;;4863396;29;20395;-87
2021/06/23 11:53:11;;;;;;;1.50;1.20;;;23.10;89.40;;;;;;4881104;29;20029;-87
2021/06/23 11:55:37;;;;;;;3.88;1.42;;;23.00;89.40;;;;;;4879850;29;20101;-88
2021/06/23 11:58:03;;;;;;;2.40;1.60;;;23.00;89.50;;;;;;4864926;29;20040;-87
2021/06/23 12:00:30;;;;;;;1.83;1.50;;;23.00;89.50;;;;;;4880348;29;20033;-86
2021/06/23 12:02:58;;;;;;;1.98;1.30;;;23.00;89.60;;;;;;4879830;29;20041;-87
2021/06/23 12:05:24;;;;;;;2.28;1.10;;;23.00;89.60;;;;;;4865226;29;20040;-88
2021/06/23 12:07:52;;;;;;;2.38;1.20;;;23.00;89.60;;;;;;4879429;29;20029;-87
2021/06/23 12:10:20;;;;;;;2.13;1.30;;;22.90;89.50;;;;;;4879970;29;20041;-87
2021/06/23 12:12:47;;;;;;;1.77;1.30;;;22.90;89.50;;;;;;4879423;29;20037;-88
2021/06/23 12:15:16;;;;;;;2.45;1.40;;;22.90;89.50;;;;;;4879831;29;20037;-87
2021/06/23 12:17:46;;;;;;;3.75;1.50;;;22.90;89.40;;;;;;4881186;29;20108;-87
2021/06/23 12:20:12;;;;;;;2.53;1.40;;;22.90;89.50;;;;;;4880928;29;20052;-88
2021/06/23 12:22:38;;;;;;;2.58;1.13;;;22.90;89.50;;;;;;4879846;29;20029;-88
2021/06/23 12:25:08;;;;;;;1.70;1.20;;;22.90;89.60;;;;;;4879369;29;20109;-87
2021/06/23 12:27:34;;;;;;;1.85;0.98;;;22.90;89.60;;;;;;4880711;29;20440;-88
2021/06/23 12:30:00;;;;;;;1.77;0.82;;;22.80;89.60;;;;;;4879548;29;20475;-87
2021/06/23 12:32:25;;;;;;;2.85;1.33;;;22.90;89.60;;;;;;4864101;29;20037;-87
2021/06/23 12:34:51;;;;;;;1.42;1.10;;;22.80;89.50;;;;;;4863921;29;20037;-87
2021/06/23 12:37:18;;;;;;;2.75;1.30;;;22.80;89.50;;;;;;4879785;29;20136;-87
2021/06/23 12:39:44;;;;;;;2.47;1.40;;;22.80;89.50;;;;;;4864609;29;20144;-88
2021/06/23 12:42:10;;;;;;;2.10;1.27;;;22.80;89.60;;;;;;4879241;29;20068;-87
2021/06/23 12:44:36;;;;;;;2.53;1.52;;;22.80;89.60;;;;;;4879679;29;20037;-87
2021/06/23 12:47:03;;;;;;;2.15;1.00;;;22.80;89.60;;;;;;4865002;29;20380;-88
2021/06/23 12:49:31;;;;;;;5.85;1.38;;;22.80;89.50;;;;;;4882874;29;20040;-87
2021/06/23 12:51:57;;;;;;;2.80;1.23;;;22.80;89.50;;;;;;4882032;29;20035;-87
2021/06/23 12:54:23;;;;;;;1.55;1.10;;;22.80;89.30;;;;;;4882978;29;20021;-87
2021/06/23 12:56:49;;;;;;;2.67;1.40;;;22.80;89.20;;;;;;4880267;29;20364;-88
2021/06/23 12:59:15;;;;;;;2.10;1.10;;;22.80;89.20;;;;;;4880769;29;20036;-87
2021/06/23 13:01:40;;;;;;;2.03;1.05;;;22.80;89.20;;;;;;4863713;29;20403;-88
2021/06/23 13:04:06;;;;;;;1.70;1.10;;;22.80;89.70;;;;;;4878561;29;20103;-88
2021/06/23 13:06:32;;;;;;;2.33;1.20;;;22.80;89.20;;;;;;4862779;29;20079;-88
2021/06/23 13:08:58;;;;;;;3.53;1.42;;;22.80;89.70;;;;;;4878903;29;20039;-88
2021/06/23 13:11:24;;;;;;;1.33;0.90;;;22.80;89.10;;;;;;4879184;29;20491;-87
2021/06/23 13:13:49;;;;;;;1.70;1.17;;;22.80;89.10;;;;;;4880630;29;20041;-88
2021/06/23 13:16:19;;;;;;;2.58;1.08;;;22.80;89.20;;;;;;4864156;29;20093;-88
2021/06/23 13:18:45;;;;;;;2.35;1.25;;;22.70;89.30;;;;;;4868098;29;20037;-87
2021/06/23 13:21:13;;;;;;;2.28;1.33;;;22.70;89.40;;;;;;4881770;29;20061;-88
2021/06/23 13:23:38;;;;;;;2.00;1.20;;;22.70;89.40;;;;;;4879090;29;20029;-88
2021/06/23 13:26:04;;;;;;;2.70;1.27;;;22.70;89.40;;;;;;4878976;29;20093;-88
2021/06/23 13:28:30;;;;;;;1.92;1.50;;;22.70;89.40;;;;;;4863745;29;20502;-87
2021/06/23 13:30:55;;;;;;;2.28;1.25;;;22.70;89.40;;;;;;4878822;29;20041;-88
2021/06/23 13:33:21;;;;;;;2.50;1.10;;;22.70;89.40;;;;;;4878974;29;20029;-88
2021/06/23 13:35:47;;;;;;;1.17;1.00;;;22.70;89.30;;;;;;4863068;29;20041;-86
2021/06/23 13:38:12;;;;;;;1.60;1.00;;;22.70;89.30;;;;;;4861907;29;20099;-86
2021/06/23 13:40:38;;;;;;;2.15;1.38;;;22.70;89.30;;;;;;4878387;29;20396;-86
2021/06/23 13:43:04;;;;;;;1.55;1.40;;;22.70;89.40;;;;;;4878511;29;20041;-87
2021/06/23 13:45:30;;;;;;;2.45;1.30;;;22.60;89.40;;;;;;4863116;29;20048;-87
2021/06/23 13:47:57;;;;;;;3.58;1.30;;;22.60;89.40;;;;;;4879661;29;20029;-87
2021/06/23 13:50:23;;;;;;;3.53;1.40;;;22.60;89.50;;;;;;4878082;29;20033;-86
2021/06/23 13:52:50;;;;;;;3.00;1.20;;;22.60;89.50;;;;;;4879218;29;20026;-87
2021/06/23 13:55:23;;;;;;;3.47;1.25;;;22.60;89.60;;;;;;4877581;29;20070;-87
2021/06/23 13:57:58;;;;;;;3.28;1.20;;;22.60;89.60;;;;;;4863245;29;20120;-87
2021/06/23 14:00:25;;;;;;;2.72;1.20;;;22.60;89.60;;;;;;4878045;29;20116;-86
2021/06/23 14:02:51;;;;;;;1.10;0.88;;;22.60;89.60;;;;;;4877727;29;20513;-86
2021/06/23 14:05:16;;;;;;;1.85;1.13;;;22.60;89.80;;;;;;4862236;29;20148;-87
2021/06/23 14:07:43;;;;;;;1.77;1.25;;;22.60;89.80;;;;;;4862797;29;20059;-86
2021/06/23 14:10:09;;;;;;;2.42;1.38;;;22.60;89.80;;;;;;4877759;29;20108;-86
2021/06/23 14:12:35;;;;;;;3.03;1.45;;;22.60;89.80;;;;;;4878005;29;20044;-87
2021/06/23 14:15:01;;;;;;;2.33;1.33;;;22.60;89.80;;;;;;4861909;29;20053;-86
2021/06/23 14:17:27;;;;;;;2.75;1.50;;;22.60;89.80;;;;;;4879948;29;20414;-86
2021/06/23 14:19:52;;;;;;;2.15;1.52;;;22.60;89.80;;;;;;4881603;29;20033;-86
2021/06/23 14:22:18;;;;;;;2.88;1.50;;;22.60;89.80;;;;;;4881308;29;20522;-86
2021/06/23 14:24:44;;;;;;;2.00;1.30;;;22.60;89.90;;;;;;4865863;29;20103;-88
2021/06/23 14:27:10;;;;;;;2.70;1.40;;;22.60;89.90;;;;;;4882605;29;20033;-86
2021/06/23 14:29:36;;;;;;;3.13;1.20;;;22.60;89.90;;;;;;4879742;29;20388;-86
2021/06/23 14:32:02;;;;;;;2.03;1.20;;;22.60;89.90;;;;;;4880675;29;20040;-85
2021/06/23 14:34:27;;;;;;;2.95;1.42;;;22.60;90.00;;;;;;4880756;29;20076;-85
2021/06/23 14:36:53;;;;;;;2.13;1.30;;;22.60;90.00;;;;;;4866031;29;20036;-85
2021/06/23 14:39:19;;;;;;;2.28;1.25;;;22.60;90.00;;;;;;4881752;29;20064;-86
2021/06/23 14:41:44;;;;;;;1.83;1.20;;;22.60;90.00;;;;;;4881336;29;20111;-86
2021/06/23 14:44:10;;;;;;;1.92;1.08;;;22.60;90.00;;;;;;4865706;29;20032;-86
2021/06/23 14:46:37;;;;;;;1.73;1.20;;;22.50;89.90;;;;;;4865708;29;20040;-87
2021/06/23 14:49:05;;;;;;;1.95;1.35;;;22.50;90.00;;;;;;4880866;29;20065;-86
2021/06/23 14:51:32;;;;;;;1.73;1.48;;;22.50;90.00;;;;;;4865543;29;20052;-85
2021/06/23 14:53:57;;;;;;;2.22;1.25;;;22.50;90.00;;;;;;4881056;29;20502;-86
2021/06/23 14:56:23;;;;;;;2.40;1.33;;;22.50;90.00;;;;;;4882008;29;20037;-86
2021/06/23 14:58:49;;;;;;;2.65;1.70;;;22.40;90.00;;;;;;4881159;29;20029;-85
2021/06/23 15:01:15;;;;;;;2.25;1.48;;;22.40;90.10;;;;;;4850339;29;20060;-86
2021/06/23 15:03:41;;;;;;;3.97;1.55;;;22.40;90.00;;;;;;4881319;29;20391;-85
2021/06/23 15:06:08;;;;;;;2.13;1.30;;;22.40;90.10;;;;;;4884600;29;20041;-86
2021/06/23 15:08:36;;;;;;;4.13;1.92;;;22.40;90.10;;;;;;4889278;29;20029;-86
2021/06/23 15:11:07;;;;;;;3.50;1.83;;;22.40;90.10;;;;;;4883127;29;20049;-88
2021/06/23 15:13:35;;;;;;;3.22;1.80;;;22.40;90.10;;;;;;4884280;29;20040;-88
2021/06/23 15:16:01;;;;;;;2.28;1.38;;;22.30;90.00;;;;;;4882202;29;20072;-88
2021/06/23 15:18:27;;;;;;;1.50;1.13;;;22.30;90.00;;;;;;4880601;29;20063;-88
2021/06/23 15:20:53;;;;;;;2.83;1.40;;;22.40;90.10;;;;;;4883794;29;20033;-88
2021/06/23 15:23:20;;;;;;;1.83;1.33;;;22.40;90.10;;;;;;4888159;29;20382;-89
2021/06/23 15:25:46;;;;;;;2.42;1.50;;;22.30;90.10;;;;;;4884566;29;20045;-88
2021/06/23 15:28:12;;;;;;;2.30;1.23;;;22.30;90.10;;;;;;4883568;29;20045;-88
2021/06/23 15:30:39;;;;;;;3.53;1.58;;;22.30;90.10;;;;;;4886874;29;20028;-88
2021/06/23 15:33:05;;;;;;;2.47;1.10;;;22.30;90.20;;;;;;4892020;29;20036;-88
2021/06/23 15:35:31;;;;;;;1.88;1.30;;;22.30;90.20;;;;;;4882846;29;20496;-88
2021/06/23 15:37:56;;;;;;;2.10;1.30;;;22.30;90.20;;;;;;4886489;29;20037;-88
2021/06/23 15:40:22;;;;;;;2.05;1.20;;;22.30;90.20;;;;;;4900709;29;20051;-89
2021/06/23 15:42:48;;;;;;;2.95;1.40;;;22.30;90.20;;;;;;4900135;29;20029;-88
2021/06/23 15:45:15;;;;;;;2.78;1.30;;;22.30;90.30;;;;;;4883899;29;20203;-89
2021/06/23 15:47:43;;;;;;;2.40;1.35;;;22.30;90.30;;;;;;4901234;29;20029;-88
2021/06/23 15:50:09;;;;;;;1.73;1.23;;;22.30;90.30;;;;;;4899210;29;20479;-87
2021/06/23 15:52:35;;;;;;;2.50;1.17;;;22.40;90.30;;;;;;4902362;29;20496;-88
2021/06/23 15:55:01;;;;;;;1.50;1.13;;;22.30;90.30;;;;;;4890366;29;20072;-89
2021/06/23 15:57:27;;;;;;;2.10;1.25;;;22.30;90.20;;;;;;4906648;29;20101;-88
2021/06/23 15:59:53;;;;;;;3.83;1.33;;;22.30;90.20;;;;;;4909072;29;20037;-89
2021/06/23 16:02:20;;;;;;;5.50;1.55;;;22.40;90.20;;;;;;4910869;29;20070;-89
2021/06/23 16:04:46;;;;;;;2.40;1.45;;;22.30;90.10;;;;;;4898421;29;20036;-89
2021/06/23 16:07:12;;;;;;;2.42;1.48;;;22.30;90.10;;;;;;4893947;29;20123;-89
2021/06/23 16:09:39;;;;;;;2.10;1.20;;;22.30;90.10;;;;;;4907466;29;20378;-88
2021/06/23 16:12:07;;;;;;;3.15;1.20;;;22.30;90.20;;;;;;4909149;29;20051;-88
2021/06/23 16:14:34;;;;;;;1.60;1.50;;;22.30;90.20;;;;;;4893019;29;20096;-89
2021/06/23 16:17:00;;;;;;;2.15;1.20;;;22.30;90.20;;;;;;4893512;29;20093;-88
2021/06/23 16:19:26;;;;;;;3.38;1.48;;;22.30;90.20;;;;;;4909176;29;20057;-88
2021/06/23 16:22:02;;;;;;;2.60;1.17;;;22.30;90.30;;;;;;4910728;29;20033;-87
2021/06/23 16:24:34;;;;;;;2.65;1.40;;;22.30;90.30;;;;;;4895229;29;20040;-88
2021/06/23 16:27:00;;;;;;;3.10;1.33;;;22.30;90.30;;;;;;4893756;29;20431;-88
2021/06/23 16:29:26;;;;;;;2.70;1.25;;;22.30;90.30;;;;;;4893031;29;20064;-88
2021/06/23 16:31:53;;;;;;;3.47;1.20;;;22.30;90.30;;;;;;4893190;29;20060;-89
2021/06/23 16:34:19;;;;;;;2.03;1.15;;;22.30;90.30;;;;;;4894905;29;20056;-88
2021/06/23 16:36:46;;;;;;;2.95;1.55;;;22.30;90.40;;;;;;4894262;29;20040;-88
2021/06/23 16:39:12;;;;;;;2.13;1.27;;;22.30;90.40;;;;;;4909889;29;20063;-87
2021/06/23 16:41:39;;;;;;;2.05;1.30;;;22.30;90.40;;;;;;4878534;29;20172;-87
2021/06/23 16:44:06;;;;;;;3.90;1.40;;;22.30;90.40;;;;;;4909345;29;20025;-88
2021/06/23 16:46:32;;;;;;;2.58;1.40;;;22.30;90.40;;;;;;4909035;29;20151;-88
2021/06/23 16:48:58;;;;;;;1.60;1.00;;;22.30;90.40;;;;;;4892598;29;20063;-89
2021/06/23 16:51:23;;;;;;;3.17;1.25;;;22.30;90.40;;;;;;4907927;29;20039;-88
2021/06/23 16:53:49;;;;;;;2.05;1.05;;;22.30;90.40;;;;;;4906676;29;20060;-88
2021/06/23 16:56:15;;;;;;;1.05;1.00;;;22.30;90.40;;;;;;4890876;29;20040;-89
2021/06/23 16:58:40;;;;;;;2.17;1.27;;;22.30;90.40;;;;;;4891482;29;20088;-89
2021/06/23 17:01:16;;;;;;;3.28;1.10;;;22.30;90.40;;;;;;4907158;29;20137;-89
2021/06/23 17:03:42;;;;;;;1.90;1.13;;;22.30;90.40;;;;;;4888371;29;20036;-89
2021/06/23 17:06:12;;;;;;;1.55;1.00;;;22.30;90.50;;;;;;4909978;29;20029;-89
2021/06/23 17:08:38;;;;;;;2.30;1.20;;;22.30;90.50;;;;;;4884068;29;20084;-88
2021/06/23 17:11:04;;;;;;;3.28;1.02;;;22.30;90.50;;;;;;4898011;29;20036;-88
2021/06/23 17:13:30;;;;;;;1.75;1.13;;;22.30;90.50;;;;;;4899740;29;20029;-89
2021/06/23 17:15:56;;;;;;;2.97;1.20;;;22.30;90.60;;;;;;4899111;29;20048;-89
2021/06/23 17:18:22;;;;;;;3.30;0.93;;;22.30;90.50;;;;;;4898175;29;20456;-89
2021/06/23 17:20:48;;;;;;;1.98;1.13;;;22.40;90.50;;;;;;4898416;29;20368;-88
2021/06/23 17:23:14;;;;;;;2.33;1.30;;;22.30;90.50;;;;;;4898190;29;20043;-88
2021/06/23 17:25:40;;;;;;;2.80;1.15;;;22.40;90.50;;;;;;4882429;29;20621;-88
2021/06/23 17:28:06;;;;;;;1.75;1.08;;;22.30;90.50;;;;;;4881634;29;20032;-87
2021/06/23 17:30:32;;;;;;;1.75;1.17;;;22.30;90.50;;;;;;4882064;29;20051;-88
2021/06/23 17:32:58;;;;;;;1.92;1.00;;;22.30;90.50;;;;;;4897524;29;20037;-88
2021/06/23 17:35:24;;;;;;;2.10;1.10;;;22.30;90.50;;;;;;4882080;29;20052;-89
2021/06/23 17:37:50;;;;;;;2.35;1.42;;;22.30;90.50;;;;;;4896909;29;20040;-89
2021/06/23 17:40:16;;;;;;;2.85;1.10;;;22.30;90.50;;;;;;4882168;29;20479;-88
2021/06/23 17:42:43;;;;;;;2.20;0.80;;;22.30;90.50;;;;;;4881659;29;20115;-88
2021/06/23 17:45:10;;;;;;;2.55;1.05;;;22.30;90.50;;;;;;4896749;29;20550;-87
2021/06/23 17:47:36;;;;;;;3.90;1.30;;;22.40;90.60;;;;;;4881611;29;20123;-88
2021/06/23 17:50:06;;;;;;;1.48;1.10;;;22.30;90.60;;;;;;4882229;29;20088;-88
2021/06/23 17:52:33;;;;;;;1.60;0.95;;;22.30;90.60;;;;;;4883462;29;20037;-88
2021/06/23 17:54:59;;;;;;;1.20;0.90;;;22.30;90.60;;;;;;4901496;29;20048;-88
2021/06/23 17:57:25;;;;;;;2.67;1.20;;;22.30;90.60;;;;;;4886094;29;20051;-89
2021/06/23 17:59:50;;;;;;;1.25;1.08;;;22.30;90.70;;;;;;4901493;29;20514;-88
2021/06/23 18:02:16;;;;;;;1.10;1.00;;;22.30;90.70;;;;;;4886138;29;20033;-88
2021/06/23 18:04:42;;;;;;;1.45;1.20;;;22.30;90.70;;;;;;4904976;29;20065;-88
2021/06/23 18:07:07;;;;;;;2.38;1.13;;;22.30;90.70;;;;;;4904907;29;20033;-88
2021/06/23 18:09:33;;;;;;;1.92;1.23;;;22.30;90.70;;;;;;4885117;29;20032;-87
2021/06/23 18:11:59;;;;;;;1.33;1.13;;;22.30;90.60;;;;;;4884833;29;20033;-88
2021/06/23 18:14:24;;;;;;;1.60;1.20;;;22.20;90.60;;;;;;4869654;29;20040;-88
2021/06/23 18:16:50;;;;;;;1.45;1.10;;;22.30;90.60;;;;;;4902381;29;20493;-88
2021/06/23 18:19:19;;;;;;;2.40;1.17;;;22.20;90.60;;;;;;4868706;29;20517;-88
2021/06/23 18:21:45;;;;;;;2.47;1.27;;;22.20;90.60;;;;;;4900787;29;20059;-88
2021/06/23 18:24:11;;;;;;;1.70;1.30;;;22.20;90.70;;;;;;4885757;29;20033;-89
2021/06/23 18:26:37;;;;;;;1.70;1.02;;;22.20;90.80;;;;;;4885076;29;20127;-88
2021/06/23 18:29:05;;;;;;;1.30;0.93;;;22.20;90.90;;;;;;4900925;29;20025;-88
2021/06/23 18:31:31;;;;;;;1.08;0.90;;;22.20;90.90;;;;;;4884932;29;20035;-88
2021/06/23 18:33:58;;;;;;;1.95;1.35;;;22.20;90.90;;;;;;4885295;29;20043;-88
2021/06/23 18:36:24;;;;;;;2.15;1.08;;;22.30;90.90;;;;;;4900427;29;20041;-88
2021/06/23 18:38:49;;;;;;;2.53;1.13;;;22.30;90.90;;;;;;4900445;29;20057;-88
2021/06/23 18:41:15;;;;;;;1.98;1.15;;;22.30;90.90;;;;;;4885151;29;20104;-88
2021/06/23 18:43:41;;;;;;;1.88;1.10;;;22.20;90.80;;;;;;4888532;29;20032;-87
2021/06/23 18:46:06;;;;;;;1.83;1.05;;;22.20;90.80;;;;;;4908120;29;20040;-88
2021/06/23 18:48:34;;;;;;;1.20;1.00;;;22.30;90.90;;;;;;4885459;29;20550;-87
2021/06/23 18:50:59;;;;;;;2.30;1.10;;;22.30;90.90;;;;;;4906094;29;20100;-89
2021/06/23 18:53:25;;;;;;;3.60;1.15;;;22.20;90.90;;;;;;4888965;29;20482;-89
2021/06/23 18:55:51;;;;;;;2.63;1.20;;;22.20;90.80;;;;;;4887551;29;20041;-88
2021/06/23 18:58:17;;;;;;;1.67;1.10;;;22.20;90.80;;;;;;4884859;29;20479;-87
2021/06/23 19:00:42;;;;;;;1.67;1.00;;;22.20;90.80;;;;;;4901095;29;20045;-87
2021/06/23 19:03:08;;;;;;;2.63;1.55;;;22.20;90.80;;;;;;4883720;29;20033;-87
2021/06/23 19:05:35;;;;;;;2.08;1.35;;;22.20;90.80;;;;;;4883942;29;20032;-88
2021/06/23 19:08:01;;;;;;;1.00;0.82;;;22.10;90.80;;;;;;4901493;29;20025;-87
2021/06/23 19:10:27;;;;;;;2.90;1.08;;;22.10;90.80;;;;;;4884901;29;20041;-88
2021/06/23 19:12:53;;;;;;;1.20;1.10;;;22.10;90.80;;;;;;4900282;29;20123;-87
2021/06/23 19:15:20;;;;;;;2.22;1.10;;;22.10;90.80;;;;;;4900997;29;20120;-87
2021/06/23 19:17:46;;;;;;;1.55;1.10;;;22.10;90.90;;;;;;4899887;29;20487;-86
2021/06/23 19:20:12;;;;;;;1.35;0.80;;;22.10;90.90;;;;;;4902741;29;20029;-87
2021/06/23 19:22:38;;;;;;;1.38;0.90;;;22.10;90.90;;;;;;4900401;29;20506;-88
2021/06/23 19:25:07;;;;;;;3.97;1.55;;;22.10;91.00;;;;;;4899645;29;20036;-87
2021/06/23 19:27:33;;;;;;;1.88;1.10;;;22.10;91.00;;;;;;4899711;29;20119;-87
2021/06/23 19:29:59;;;;;;;1.75;1.23;;;22.10;91.10;;;;;;4899628;29;20028;-88
2021/06/23 19:32:25;;;;;;;1.85;1.15;;;22.10;91.10;;;;;;4883711;29;20040;-87
2021/06/23 19:34:51;;;;;;;1.33;1.00;;;22.10;91.10;;;;;;4899285;29;20033;-86
2021/06/23 19:37:17;;;;;;;1.40;1.25;;;22.10;91.10;;;;;;4899459;29;20165;-88
2021/06/23 19:39:43;;;;;;;1.90;1.20;;;22.10;91.10;;;;;;4899595;29;20076;-87
2021/06/23 19:42:09;;;;;;;2.25;1.35;;;22.10;91.20;;;;;;4889349;29;20032;-87
2021/06/23 19:44:36;;;;;;;1.20;1.00;;;22.10;91.20;;;;;;4889477;29;20495;-87
2021/06/23 19:47:02;;;;;;;2.08;1.17;;;22.10;91.20;;;;;;4905741;29;20021;-88